Time;durP1;ratioP1;P1;durP2;ratioP2;P2;SDS_P1;SDS_P2;PMS_P1;PMS_P2;Temp;Humidity;BMP_temperature;BMP_pressure;BME280_temperature;BME280_humidity;BME280_pressure;Samples;Min_cycle;Max_cycle;Signal;HPM_P1;HPM_P2
2023/03/18 00:01:33;;;;;;;7.38;5.70;;;5.10;99.90;;;;;;5029686;28;20219;-75
2023/03/18 00:03:58;;;;;;;6.97;5.70;;;5.00;99.90;;;;;;5029641;28;20271;-75
2023/03/18 00:06:24;;;;;;;8.02;6.30;;;5.10;99.90;;;;;;5030242;28;20284;-75
2023/03/18 00:08:51;;;;;;;5.90;5.30;;;5.00;99.90;;;;;;5031678;28;20659;-75
2023/03/18 00:11:18;;;;;;;6.38;5.43;;;5.00;99.90;;;;;;5028035;28;20242;-74
2023/03/18 00:13:45;;;;;;;8.15;5.70;;;4.90;99.90;;;;;;5031705;28;20243;-75
2023/03/18 00:16:11;;;;;;;6.40;5.80;;;4.90;99.90;;;;;;5034599;28;20196;-74
2023/03/18 00:18:38;;;;;;;7.85;5.40;;;4.80;99.90;;;;;;5029809;28;20622;-74
2023/03/18 00:21:04;;;;;;;6.43;5.80;;;4.70;99.90;;;;;;5028975;28;20192;-74
2023/03/18 00:23:31;;;;;;;6.30;5.70;;;4.70;99.90;;;;;;5032045;28;20648;-75
2023/03/18 00:25:59;;;;;;;7.10;5.60;;;4.60;99.90;;;;;;5027324;28;20532;-75
2023/03/18 00:28:25;;;;;;;7.43;6.05;;;4.60;99.90;;;;;;5024271;28;20176;-74
2023/03/18 00:30:51;;;;;;;7.45;5.68;;;4.70;99.90;;;;;;5027450;28;20205;-75
2023/03/18 00:33:18;;;;;;;7.95;5.60;;;4.70;99.90;;;;;;5032327;28;20188;-74
2023/03/18 00:35:45;;;;;;;8.48;6.22;;;4.60;99.90;;;;;;5024866;28;20216;-74
2023/03/18 00:38:19;;;;;;;7.07;6.38;;;4.60;99.90;;;;;;5031948;28;20204;-75
2023/03/18 00:41:09;;;;;;;6.40;5.80;;;4.50;99.90;;;;;;5027994;28;20567;-74
2023/03/18 00:43:44;;;;;;;12.10;6.10;;;4.50;99.90;;;;;;5034874;28;20713;-74
2023/03/18 00:46:23;;;;;;;7.47;6.35;;;4.40;99.90;;;;;;5029365;28;20713;-74
2023/03/18 00:48:49;;;;;;;8.85;6.60;;;4.40;99.90;;;;;;5024470;28;20180;-74
2023/03/18 00:51:16;;;;;;;7.25;5.55;;;4.40;99.90;;;;;;5024389;28;20227;-74
2023/03/18 00:53:43;;;;;;;7.32;6.45;;;4.30;99.90;;;;;;5028875;28;20180;-74
2023/03/18 00:56:10;;;;;;;6.95;6.13;;;4.20;99.90;;;;;;5022711;28;20613;-74
2023/03/18 00:58:37;;;;;;;6.82;6.03;;;4.10;99.90;;;;;;5019404;28;20475;-75
2023/03/18 01:01:04;;;;;;;6.28;5.55;;;4.10;99.90;;;;;;5021784;28;20574;-74
2023/03/18 01:03:30;;;;;;;6.05;5.45;;;4.10;99.90;;;;;;5029304;28;20176;-74
2023/03/18 01:05:56;;;;;;;6.18;4.95;;;4.00;99.90;;;;;;5031876;28;20185;-74
2023/03/18 01:08:23;;;;;;;6.65;4.85;;;4.00;99.90;;;;;;5025348;28;20207;-74
2023/03/18 01:10:49;;;;;;;7.43;5.30;;;4.00;99.90;;;;;;5030566;28;20246;-74
2023/03/18 01:13:14;;;;;;;6.47;5.15;;;3.90;99.90;;;;;;5028156;28;20181;-74
2023/03/18 01:15:41;;;;;;;8.70;5.13;;;3.80;99.90;;;;;;5022713;28;20539;-74
2023/03/18 01:18:07;;;;;;;5.70;5.10;;;3.80;99.90;;;;;;5029455;28;20177;-74
2023/03/18 01:20:34;;;;;;;6.75;4.90;;;3.80;99.90;;;;;;5021053;28;20204;-75
2023/03/18 01:23:00;;;;;;;8.10;5.72;;;3.80;99.90;;;;;;5017410;28;20179;-74
2023/03/18 01:25:26;;;;;;;7.03;5.10;;;3.80;99.90;;;;;;5031584;28;20555;-74
2023/03/18 01:27:52;;;;;;;5.90;5.32;;;3.80;99.90;;;;;;5029144;28;20196;-74
2023/03/18 01:30:19;;;;;;;5.65;4.65;;;3.80;99.90;;;;;;5027867;28;20218;-74
2023/03/18 01:32:45;;;;;;;6.88;5.18;;;3.80;99.90;;;;;;5025619;28;20172;-75
2023/03/18 01:35:11;;;;;;;8.23;5.55;;;3.70;99.90;;;;;;5031406;28;20212;-75
2023/03/18 01:37:37;;;;;;;5.75;5.00;;;3.60;99.90;;;;;;5029568;28;20176;-74
2023/03/18 01:40:05;;;;;;;5.32;4.82;;;3.60;99.90;;;;;;5030202;28;20208;-75
2023/03/18 01:42:31;;;;;;;5.57;5.00;;;3.60;99.90;;;;;;5030864;28;20189;-75
2023/03/18 01:45:30;;;;;;;6.03;5.10;;;3.50;99.90;;;;;;5025462;28;20263;-75
2023/03/18 01:47:57;;;;;;;5.20;4.70;;;3.50;99.90;;;;;;5012349;28;20526;-75
2023/03/18 01:50:30;;;;;;;5.03;4.63;;;3.50;99.90;;;;;;5022539;28;20201;-75
2023/03/18 01:53:01;;;;;;;5.32;4.82;;;3.50;99.90;;;;;;5028673;28;20181;-75
2023/03/18 01:55:30;;;;;;;5.22;4.72;;;3.50;99.90;;;;;;5028595;28;20711;-74
2023/03/18 01:57:56;;;;;;;6.13;5.53;;;3.50;99.90;;;;;;5027709;28;20168;-74
2023/03/18 02:00:22;;;;;;;6.07;4.68;;;3.50;99.90;;;;;;5031322;28;20196;-74
2023/03/18 02:02:50;;;;;;;5.45;4.93;;;3.50;99.90;;;;;;5027448;28;20584;-75
2023/03/18 02:05:20;;;;;;;8.00;4.85;;;3.50;99.90;;;;;;5034453;28;20241;-75
2023/03/18 02:07:46;;;;;;;5.05;4.60;;;3.50;99.90;;;;;;5025496;28;20180;-73
2023/03/18 02:10:26;;;;;;;6.05;4.78;;;3.50;99.90;;;;;;5030547;28;20254;-73
2023/03/18 02:13:06;;;;;;;5.05;4.55;;;3.50;99.90;;;;;;5032320;28;20192;-75
2023/03/18 02:15:36;;;;;;;7.40;4.60;;;3.50;99.90;;;;;;5021976;28;20261;-76
2023/03/18 02:18:18;;;;;;;5.55;5.07;;;3.50;99.90;;;;;;5026609;28;20200;-74
2023/03/18 02:21:25;;;;;;;5.22;4.75;;;3.50;99.90;;;;;;5021763;28;20212;-74
2023/03/18 02:24:33;;;;;;;4.82;4.40;;;3.50;99.90;;;;;;5024838;28;20192;-75
2023/03/18 02:27:04;;;;;;;7.72;4.72;;;3.40;99.90;;;;;;5018070;28;20201;-75
2023/03/18 02:29:35;;;;;;;4.90;4.43;;;3.40;99.90;;;;;;5028252;28;20555;-75
2023/03/18 02:32:03;;;;;;;6.95;4.85;;;3.40;99.90;;;;;;5023191;28;20204;-74
2023/03/18 02:34:29;;;;;;;4.70;4.30;;;3.30;99.90;;;;;;5023134;28;20204;-75
2023/03/18 02:36:56;;;;;;;5.38;4.88;;;3.20;99.90;;;;;;5027340;28;20631;-75
2023/03/18 02:39:22;;;;;;;5.65;5.07;;;3.30;99.90;;;;;;5030436;28;20276;-75
2023/03/18 02:41:47;;;;;;;5.10;4.60;;;3.30;99.90;;;;;;5031465;28;20276;-75
2023/03/18 02:44:13;;;;;;;6.28;4.45;;;3.30;99.90;;;;;;5026153;28;20251;-75
2023/03/18 02:46:48;;;;;;;5.53;4.57;;;3.30;99.90;;;;;;5034238;28;20217;-75
2023/03/18 02:49:14;;;;;;;5.00;4.50;;;3.20;99.90;;;;;;5032546;28;20182;-75
2023/03/18 02:51:40;;;;;;;5.80;5.20;;;3.20;99.90;;;;;;5030673;28;20566;-75
2023/03/18 02:54:09;;;;;;;5.40;4.85;;;3.30;99.90;;;;;;5032601;28;20686;-75
2023/03/18 02:56:36;;;;;;;6.37;5.27;;;3.40;99.90;;;;;;5032430;28;20183;-73
2023/03/18 02:59:02;;;;;;;5.40;4.90;;;3.30;99.90;;;;;;5029282;28;20224;-72
2023/03/18 03:01:28;;;;;;;5.13;4.63;;;3.20;99.90;;;;;;5028251;28;21815;-72
2023/03/18 03:03:55;;;;;;;5.40;4.87;;;3.20;99.90;;;;;;5032633;28;20195;-72
2023/03/18 03:06:20;;;;;;;5.47;4.80;;;3.20;99.90;;;;;;5031670;28;20602;-71
2023/03/18 03:08:46;;;;;;;6.43;4.97;;;3.10;99.90;;;;;;5033637;28;20275;-72
2023/03/18 03:11:13;;;;;;;5.75;4.53;;;3.10;99.90;;;;;;5029155;28;20211;-72
2023/03/18 03:13:40;;;;;;;8.50;4.80;;;3.10;99.90;;;;;;5032102;28;20184;-72
2023/03/18 03:16:07;;;;;;;6.18;5.15;;;3.00;99.90;;;;;;5029395;28;20181;-72
2023/03/18 03:18:34;;;;;;;5.78;5.22;;;3.00;99.90;;;;;;5033283;28;20184;-72
2023/03/18 03:21:00;;;;;;;5.10;4.57;;;2.90;99.90;;;;;;5028199;28;20203;-72
2023/03/18 03:23:26;;;;;;;4.63;4.20;;;2.90;99.90;;;;;;5029748;28;20648;-72
2023/03/18 03:25:52;;;;;;;5.37;4.87;;;2.90;99.90;;;;;;5027844;28;20177;-72
2023/03/18 03:28:17;;;;;;;5.43;4.90;;;2.90;99.90;;;;;;5029202;28;20196;-71
2023/03/18 03:30:44;;;;;;;5.47;4.80;;;2.90;99.90;;;;;;5032558;28;20582;-72
2023/03/18 03:33:10;;;;;;;6.47;5.40;;;2.80;99.90;;;;;;5034532;28;20207;-72
2023/03/18 03:35:37;;;;;;;5.27;4.87;;;2.80;99.90;;;;;;5033699;28;20319;-72
2023/03/18 03:38:03;;;;;;;5.23;4.80;;;2.80;99.90;;;;;;5034637;28;20203;-72
2023/03/18 03:40:29;;;;;;;5.22;4.30;;;2.80;99.90;;;;;;5031102;28;20201;-72
2023/03/18 03:42:54;;;;;;;5.90;5.07;;;2.80;99.90;;;;;;5029483;28;20314;-72
2023/03/18 03:45:20;;;;;;;5.63;5.00;;;2.70;99.90;;;;;;5036424;28;20176;-72
2023/03/18 03:47:46;;;;;;;7.43;5.17;;;2.80;99.90;;;;;;5028319;28;20195;-72
2023/03/18 03:50:13;;;;;;;5.90;5.30;;;2.70;99.90;;;;;;5027087;28;20275;-72
2023/03/18 03:52:39;;;;;;;5.23;4.83;;;2.70;99.90;;;;;;5029988;28;20283;-72
2023/03/18 03:55:07;;;;;;;5.90;5.30;;;2.70;99.90;;;;;;5033448;28;20204;-73
2023/03/18 03:57:34;;;;;;;7.77;5.00;;;2.70;99.90;;;;;;5024225;28;20173;-72
2023/03/18 04:00:00;;;;;;;5.97;5.07;;;2.60;99.90;;;;;;5029706;28;20181;-73
2023/03/18 04:02:26;;;;;;;5.43;4.93;;;2.60;99.90;;;;;;5026583;28;20177;-73
2023/03/18 04:04:52;;;;;;;7.37;5.00;;;2.60;99.90;;;;;;5033996;28;20184;-75
2023/03/18 04:07:18;;;;;;;7.57;5.53;;;2.50;99.90;;;;;;5028559;28;20236;-75
2023/03/18 04:09:45;;;;;;;5.80;5.20;;;2.50;99.90;;;;;;5026280;28;20208;-75
2023/03/18 04:12:11;;;;;;;4.90;4.43;;;2.50;99.90;;;;;;5029927;28;20264;-75
2023/03/18 04:14:37;;;;;;;6.27;5.30;;;2.50;99.90;;;;;;5029501;28;20666;-75
2023/03/18 04:17:03;;;;;;;5.97;5.10;;;2.50;99.90;;;;;;5030782;28;20217;-72
2023/03/18 04:19:29;;;;;;;6.67;4.87;;;2.60;99.90;;;;;;5025392;28;20223;-72
2023/03/18 04:21:55;;;;;;;5.17;4.63;;;2.50;99.90;;;;;;5025164;28;20201;-72
2023/03/18 04:24:22;;;;;;;4.47;4.17;;;2.50;99.90;;;;;;5030632;28;20180;-72
2023/03/18 04:26:48;;;;;;;6.70;4.93;;;2.50;99.90;;;;;;5029206;28;20593;-73
2023/03/18 04:29:13;;;;;;;5.93;4.80;;;2.50;99.90;;;;;;5026174;28;20180;-72
2023/03/18 04:31:39;;;;;;;6.40;4.53;;;2.50;99.90;;;;;;5030186;28;20191;-72
2023/03/18 04:34:05;;;;;;;5.87;4.70;;;2.60;99.90;;;;;;5032057;28;20207;-72
2023/03/18 04:36:31;;;;;;;5.20;4.70;;;2.80;99.90;;;;;;5026917;28;20310;-72
2023/03/18 04:38:57;;;;;;;4.80;4.40;;;2.80;99.90;;;;;;5022304;28;20209;-72
2023/03/18 04:41:23;;;;;;;5.80;5.03;;;2.80;99.90;;;;;;5033350;28;20291;-73
2023/03/18 04:43:49;;;;;;;5.67;5.13;;;2.80;99.90;;;;;;5023667;28;20176;-71
2023/03/18 04:46:15;;;;;;;5.20;4.70;;;2.70;99.90;;;;;;5026168;28;20267;-72
2023/03/18 04:48:41;;;;;;;5.33;4.37;;;2.80;99.90;;;;;;5035490;28;20187;-72
2023/03/18 04:51:08;;;;;;;6.07;4.97;;;2.80;99.90;;;;;;5032929;28;20205;-72
2023/03/18 04:53:34;;;;;;;5.67;5.13;;;2.80;99.90;;;;;;5020348;28;20664;-72
2023/03/18 04:56:00;;;;;;;4.90;4.60;;;2.80;99.90;;;;;;5036776;28;20204;-72
2023/03/18 04:58:26;;;;;;;5.87;5.27;;;2.90;99.90;;;;;;5030219;28;21220;-73
2023/03/18 05:00:52;;;;;;;5.43;4.93;;;2.80;99.90;;;;;;5030514;28;20196;-72
2023/03/18 05:03:18;;;;;;;5.13;4.65;;;2.80;99.90;;;;;;5027892;28;20195;-72
2023/03/18 05:05:43;;;;;;;5.40;4.90;;;2.80;99.90;;;;;;5025775;28;20191;-72
2023/03/18 05:08:09;;;;;;;5.77;5.10;;;2.70;99.90;;;;;;5037934;28;20209;-73
2023/03/18 05:10:36;;;;;;;4.90;4.50;;;2.80;99.90;;;;;;5028870;28;20805;-73
2023/03/18 05:13:02;;;;;;;5.80;5.30;;;2.80;99.90;;;;;;5028040;28;20212;-73
2023/03/18 05:15:28;;;;;;;11.40;5.03;;;2.80;99.90;;;;;;5035826;28;20291;-73
2023/03/18 05:17:54;;;;;;;6.40;4.77;;;2.80;99.90;;;;;;5027186;28;20168;-73
2023/03/18 05:20:20;;;;;;;5.20;4.80;;;2.80;99.90;;;;;;5022648;28;20258;-73
2023/03/18 05:22:46;;;;;;;6.40;4.83;;;2.80;99.90;;;;;;5026741;28;20185;-72
2023/03/18 05:25:11;;;;;;;6.17;4.90;;;2.80;99.90;;;;;;5025261;28;20543;-73
2023/03/18 05:27:37;;;;;;;5.37;4.97;;;2.90;99.90;;;;;;5025689;28;20279;-72
2023/03/18 05:30:05;;;;;;;6.30;5.40;;;3.00;99.90;;;;;;5024799;28;20688;-74
2023/03/18 05:32:31;;;;;;;4.90;4.50;;;3.00;99.90;;;;;;5034994;28;20180;-74
2023/03/18 05:34:56;;;;;;;5.53;5.03;;;3.10;99.90;;;;;;5026726;28;20310;-74
2023/03/18 05:37:23;;;;;;;6.57;4.77;;;3.10;99.90;;;;;;5038369;28;20263;-73
2023/03/18 05:39:49;;;;;;;6.87;6.10;;;3.10;99.90;;;;;;5025548;28;20209;-73
2023/03/18 05:42:15;;;;;;;5.80;5.13;;;3.10;99.90;;;;;;5026065;28;20656;-74
2023/03/18 05:44:41;;;;;;;7.20;5.03;;;3.10;99.90;;;;;;5024515;28;20555;-74
2023/03/18 05:47:08;;;;;;;7.30;5.53;;;3.20;99.90;;;;;;5032785;28;20188;-74
2023/03/18 05:49:34;;;;;;;5.70;5.10;;;3.20;99.90;;;;;;5027464;28;20655;-74
2023/03/18 05:52:00;;;;;;;7.73;4.77;;;3.30;99.90;;;;;;5027615;28;20205;-75
2023/03/18 05:54:26;;;;;;;6.63;5.50;;;3.30;99.90;;;;;;5033684;28;20196;-74
2023/03/18 05:56:51;;;;;;;9.27;6.00;;;3.40;99.90;;;;;;5030116;28;20173;-74
2023/03/18 05:59:18;;;;;;;6.37;5.60;;;3.40;99.90;;;;;;5027267;28;20189;-74
2023/03/18 06:01:44;;;;;;;7.77;5.80;;;3.50;99.90;;;;;;5024813;28;20208;-74
2023/03/18 06:04:10;;;;;;;7.65;6.25;;;3.70;99.90;;;;;;5027371;28;20272;-73
2023/03/18 06:06:39;;;;;;;8.15;6.90;;;3.90;99.90;;;;;;5031555;28;20263;-77
2023/03/18 06:09:06;;;;;;;7.60;6.15;;;4.00;99.90;;;;;;5031851;28;20177;-75
2023/03/18 06:11:31;;;;;;;7.67;6.20;;;4.10;99.90;;;;;;5031269;28;20301;-75
2023/03/18 06:13:58;;;;;;;9.70;7.30;;;4.30;99.90;;;;;;5038878;28;20191;-77
2023/03/18 06:16:24;;;;;;;7.80;6.55;;;4.40;99.90;;;;;;5031121;28;20674;-76
2023/03/18 06:18:50;;;;;;;8.35;6.40;;;4.60;99.90;;;;;;5025127;28;20185;-77
2023/03/18 06:21:15;;;;;;;8.73;6.15;;;4.70;99.90;;;;;;5030944;28;20710;-75
2023/03/18 06:23:41;;;;;;;5.90;5.30;;;4.90;99.90;;;;;;5038423;28;20247;-76
2023/03/18 06:26:07;;;;;;;7.70;5.70;;;5.00;99.90;;;;;;5041606;28;20237;-75
2023/03/18 06:28:34;;;;;;;6.00;5.45;;;5.20;99.90;;;;;;5035197;28;20739;-76
2023/03/18 06:31:00;;;;;;;6.65;6.05;;;5.30;99.90;;;;;;5030476;28;20284;-76
2023/03/18 06:33:26;;;;;;;6.93;5.65;;;5.40;99.90;;;;;;5034538;28;20172;-76
2023/03/18 06:35:53;;;;;;;8.40;5.45;;;5.60;99.90;;;;;;5034747;28;20224;-74
2023/03/18 06:38:19;;;;;;;6.38;5.78;;;5.90;99.90;;;;;;5034742;28;20176;-76
2023/03/18 06:40:46;;;;;;;9.55;5.72;;;6.00;99.90;;;;;;5033245;28;20192;-75
2023/03/18 06:43:12;;;;;;;7.05;5.85;;;6.20;99.90;;;;;;5038495;28;20164;-77
2023/03/18 06:45:39;;;;;;;8.65;5.57;;;6.40;99.90;;;;;;5029508;28;20193;-77
2023/03/18 06:48:05;;;;;;;7.53;5.82;;;6.40;99.90;;;;;;5043473;28;20533;-77
2023/03/18 06:50:31;;;;;;;6.35;5.75;;;6.50;99.90;;;;;;5036511;28;20537;-78
2023/03/18 06:52:57;;;;;;;6.32;5.72;;;6.60;99.90;;;;;;5033463;28;20191;-76
2023/03/18 06:55:23;;;;;;;6.05;5.35;;;6.70;99.90;;;;;;5031965;28;20217;-77
2023/03/18 06:57:49;;;;;;;7.53;5.65;;;6.70;99.90;;;;;;5039399;28;20210;-76
2023/03/18 07:00:16;;;;;;;9.23;6.00;;;6.80;99.90;;;;;;5033014;28;20204;-78
2023/03/18 07:02:42;;;;;;;7.05;6.20;;;6.80;99.90;;;;;;5034020;28;20181;-76
2023/03/18 07:05:08;;;;;;;6.72;6.05;;;6.90;99.90;;;;;;5023631;28;20675;-75
2023/03/18 07:07:36;;;;;;;6.32;5.70;;;7.00;99.90;;;;;;5033616;28;20238;-75
2023/03/18 07:10:04;;;;;;;5.97;5.18;;;7.20;99.90;;;;;;5035145;28;20223;-75
2023/03/18 07:12:30;;;;;;;6.57;5.97;;;7.30;99.90;;;;;;5031262;28;20170;-74
2023/03/18 07:14:56;;;;;;;6.80;6.13;;;7.40;99.90;;;;;;5036574;28;20203;-75
2023/03/18 07:17:22;;;;;;;7.75;6.13;;;7.60;99.90;;;;;;5033552;28;20636;-75
2023/03/18 07:19:47;;;;;;;7.93;6.53;;;7.50;99.90;;;;;;5040469;28;20659;-75
2023/03/18 07:22:16;;;;;;;8.50;6.72;;;7.60;99.90;;;;;;5029212;28;20211;-74
2023/03/18 07:24:43;;;;;;;7.40;6.10;;;7.70;99.90;;;;;;5031568;28;20671;-74
2023/03/18 07:27:09;;;;;;;8.68;6.28;;;7.80;99.90;;;;;;5029041;28;20193;-74
2023/03/18 07:29:35;;;;;;;6.93;6.32;;;7.70;99.90;;;;;;5033051;28;20175;-75
2023/03/18 07:32:00;;;;;;;8.20;5.65;;;7.60;99.90;;;;;;5032221;28;20679;-75
2023/03/18 07:34:27;;;;;;;6.97;5.72;;;7.70;99.90;;;;;;5036837;28;20204;-74
2023/03/18 07:36:52;;;;;;;9.65;6.15;;;7.80;99.90;;;;;;5034248;28;20180;-75
2023/03/18 07:39:19;;;;;;;7.20;6.50;;;8.10;99.90;;;;;;5024799;28;20184;-74
2023/03/18 07:41:45;;;;;;;8.00;5.90;;;8.40;99.90;;;;;;5036796;28;20196;-74
2023/03/18 07:44:10;;;;;;;6.97;5.88;;;8.70;99.90;;;;;;5029297;28;20177;-75
2023/03/18 07:46:36;;;;;;;7.03;6.35;;;8.90;99.90;;;;;;5035360;28;20172;-75
2023/03/18 07:49:02;;;;;;;7.47;6.10;;;9.00;99.90;;;;;;5038686;28;20189;-75
2023/03/18 07:51:28;;;;;;;6.53;5.93;;;9.00;99.90;;;;;;5030649;28;20192;-74
2023/03/18 07:53:54;;;;;;;9.27;5.85;;;9.00;99.90;;;;;;5029140;28;20192;-74
2023/03/18 07:56:19;;;;;;;6.35;5.85;;;9.30;99.90;;;;;;5028235;28;20181;-75
2023/03/18 07:58:45;;;;;;;7.15;5.18;;;9.60;99.90;;;;;;5036068;28;20233;-75
2023/03/18 08:01:11;;;;;;;6.63;6.03;;;9.90;99.90;;;;;;5028723;28;20683;-74
2023/03/18 08:03:37;;;;;;;10.70;5.78;;;10.10;99.90;;;;;;5037689;28;20177;-74
2023/03/18 08:06:02;;;;;;;6.20;5.60;;;10.30;99.90;;;;;;5024985;28;20201;-74
2023/03/18 08:08:28;;;;;;;9.77;5.80;;;10.50;99.90;;;;;;5036040;28;20564;-74
2023/03/18 08:10:59;;;;;;;6.32;5.70;;;10.60;99.90;;;;;;5026715;28;20193;-74
2023/03/18 08:13:25;;;;;;;6.97;5.72;;;10.60;99.90;;;;;;5030407;28;20728;-74
2023/03/18 08:15:50;;;;;;;7.55;6.45;;;10.60;99.90;;;;;;5032894;28;20291;-74
2023/03/18 08:18:16;;;;;;;6.38;5.78;;;10.70;99.90;;;;;;5033544;28;20185;-74
2023/03/18 08:20:41;;;;;;;6.30;5.68;;;11.10;99.90;;;;;;5028880;28;20227;-74
2023/03/18 08:23:07;;;;;;;6.63;5.88;;;11.40;99.90;;;;;;5029773;28;20183;-75
2023/03/18 08:25:33;;;;;;;6.65;5.88;;;11.60;99.50;;;;;;5024987;28;20239;-73
2023/03/18 08:27:59;;;;;;;6.13;5.53;;;11.60;97.90;;;;;;5029247;28;20258;-73
2023/03/18 08:30:27;;;;;;;6.32;5.70;;;11.60;97.90;;;;;;5033589;28;20291;-74
2023/03/18 08:32:54;;;;;;;6.65;5.97;;;11.70;96.80;;;;;;5033974;28;20180;-75
2023/03/18 08:35:20;;;;;;;5.28;4.78;;;11.90;95.70;;;;;;5032904;28;20249;-74
2023/03/18 08:37:50;;;;;;;6.82;5.82;;;11.80;95.50;;;;;;5034274;28;20190;-74
2023/03/18 08:40:16;;;;;;;6.07;5.50;;;11.80;95.50;;;;;;5027125;28;20231;-74
2023/03/18 08:42:42;;;;;;;6.80;5.47;;;12.00;95.20;;;;;;5031503;28;20273;-75
2023/03/18 08:45:09;;;;;;;6.90;6.20;;;12.20;94.90;;;;;;5029726;28;20212;-74
2023/03/18 08:47:35;;;;;;;6.10;5.50;;;12.30;93.70;;;;;;5032569;28;20567;-75
2023/03/18 08:50:01;;;;;;;5.75;5.25;;;12.40;93.60;;;;;;5029205;28;20184;-75
2023/03/18 08:52:27;;;;;;;6.60;6.00;;;12.50;92.90;;;;;;5035417;28;20177;-75
2023/03/18 08:54:53;;;;;;;6.68;6.07;;;12.50;93.40;;;;;;5035419;28;20223;-75
2023/03/18 08:57:18;;;;;;;6.18;5.05;;;12.50;93.10;;;;;;5030145;28;20172;-74
2023/03/18 08:59:44;;;;;;;7.68;5.65;;;13.10;92.80;;;;;;5027987;28;20180;-75
2023/03/18 09:02:15;;;;;;;7.72;5.72;;;13.50;91.80;;;;;;5033100;28;20184;-74
2023/03/18 09:04:42;;;;;;;6.00;5.50;;;13.90;91.10;;;;;;5033968;28;20177;-75
2023/03/18 09:07:08;;;;;;;5.90;5.18;;;14.40;90.40;;;;;;5027742;28;20207;-75
2023/03/18 09:09:34;;;;;;;6.47;5.88;;;14.70;87.60;;;;;;5028771;28;20199;-75
2023/03/18 09:12:00;;;;;;;5.97;5.47;;;15.00;85.60;;;;;;5030854;28;20209;-75
2023/03/18 09:14:26;;;;;;;5.88;5.25;;;15.20;84.30;;;;;;5033119;28;20287;-74
2023/03/18 09:16:52;;;;;;;8.75;5.95;;;15.20;82.60;;;;;;5031777;28;20197;-75
2023/03/18 09:19:18;;;;;;;6.90;5.88;;;15.30;82.80;;;;;;5024876;28;20193;-75
2023/03/18 09:21:45;;;;;;;7.20;5.40;;;15.20;81.90;;;;;;5029330;28;20203;-75
2023/03/18 09:24:11;;;;;;;7.28;5.53;;;15.20;80.50;;;;;;5027679;28;20542;-77
2023/03/18 09:26:38;;;;;;;9.60;6.22;;;15.60;79.80;;;;;;5035227;28;20169;-76
2023/03/18 09:29:04;;;;;;;10.98;9.13;;;15.80;77.40;;;;;;5026577;28;20188;-75
2023/03/18 09:31:30;;;;;;;13.35;10.63;;;16.10;76.20;;;;;;5035181;28;20294;-74
2023/03/18 09:33:56;;;;;;;10.75;9.75;;;16.40;74.80;;;;;;5026836;28;20575;-75
2023/03/18 09:36:22;;;;;;;11.63;9.60;;;16.60;74.00;;;;;;5026004;28;20176;-75
2023/03/18 09:38:47;;;;;;;6.25;5.68;;;16.80;73.10;;;;;;5029387;28;20176;-76
2023/03/18 09:41:24;;;;;;;5.85;5.35;;;16.90;72.30;;;;;;5037603;28;20203;-76
2023/03/18 09:44:12;;;;;;;7.18;5.50;;;17.10;69.10;;;;;;5033700;28;20176;-76
2023/03/18 09:46:56;;;;;;;6.50;5.90;;;17.10;68.50;;;;;;5033051;28;20714;-76
2023/03/18 09:49:38;;;;;;;7.93;5.65;;;16.90;69.10;;;;;;5033176;28;20184;-76
2023/03/18 09:52:17;;;;;;;6.35;5.22;;;17.20;68.30;;;;;;5035073;28;20204;-76
2023/03/18 09:54:46;;;;;;;6.47;5.88;;;18.00;67.70;;;;;;5028816;28;20200;-76
2023/03/18 09:57:33;;;;;;;6.70;5.72;;;18.90;64.70;;;;;;5032004;28;20177;-76
2023/03/18 10:00:19;;;;;;;6.70;5.65;;;19.10;61.30;;;;;;5034526;28;20695;-76
2023/03/18 10:02:53;;;;;;;6.72;5.97;;;19.20;61.90;;;;;;5032845;28;20191;-76
2023/03/18 10:05:34;;;;;;;9.93;5.80;;;19.80;60.80;;;;;;5028106;28;20207;-76
2023/03/18 10:08:15;;;;;;;6.65;5.95;;;20.20;60.00;;;;;;5028476;28;20179;-76
2023/03/18 10:10:45;;;;;;;6.70;5.88;;;20.70;58.80;;;;;;5036560;28;20622;-76
2023/03/18 10:13:17;;;;;;;10.70;6.38;;;21.10;58.50;;;;;;5037441;28;20187;-76
2023/03/18 10:15:47;;;;;;;6.97;6.07;;;21.40;56.60;;;;;;5033208;28;20200;-76
2023/03/18 10:18:22;;;;;;;8.18;6.35;;;21.60;55.90;;;;;;5037831;28;20197;-76
2023/03/18 10:21:22;;;;;;;6.35;5.82;;;21.70;54.70;;;;;;5034391;28;20204;-76
2023/03/18 10:23:56;;;;;;;7.78;6.40;;;21.40;53.80;;;;;;5029310;28;20173;-77
2023/03/18 10:26:31;;;;;;;7.45;6.00;;;20.80;53.80;;;;;;5025719;28;20181;-76
2023/03/18 10:29:31;;;;;;;8.48;6.32;;;20.40;55.80;;;;;;5028973;28;20167;-76
2023/03/18 10:32:31;;;;;;;6.55;5.78;;;20.40;56.60;;;;;;5028831;28;20196;-76
2023/03/18 10:35:25;;;;;;;7.15;5.95;;;20.80;56.10;;;;;;5026026;28;20310;-76
2023/03/18 10:38:01;;;;;;;6.85;6.20;;;21.60;55.00;;;;;;5037213;28;20208;-76
2023/03/18 10:40:31;;;;;;;7.18;6.40;;;22.80;53.40;;;;;;5035133;28;20605;-76
2023/03/18 10:42:57;;;;;;;7.35;6.10;;;24.00;51.80;;;;;;5033698;28;20177;-76
2023/03/18 10:45:29;;;;;;;7.00;6.25;;;24.80;50.00;;;;;;5023660;28;20177;-77
2023/03/18 10:48:17;;;;;;;6.35;5.75;;;25.10;49.90;;;;;;5029230;28;20187;-77
2023/03/18 10:50:50;;;;;;;7.25;6.38;;;25.60;48.50;;;;;;5030310;28;20222;-77
2023/03/18 10:53:29;;;;;;;6.70;6.15;;;26.10;48.70;;;;;;5027648;28;20185;-77
2023/03/18 10:56:05;;;;;;;6.80;6.20;;;26.50;46.90;;;;;;5027352;28;20213;-77
2023/03/18 10:58:31;;;;;;;6.43;5.93;;;26.30;45.90;;;;;;5031148;28;20713;-77
2023/03/18 11:00:57;;;;;;;6.65;6.00;;;26.80;46.00;;;;;;5035218;28;20283;-77
2023/03/18 11:03:26;;;;;;;6.78;5.97;;;27.40;45.40;;;;;;5043124;28;20176;-77
2023/03/18 11:05:53;;;;;;;8.35;6.40;;;28.50;44.50;;;;;;5031183;28;20196;-75
2023/03/18 11:08:33;;;;;;;6.97;6.38;;;29.60;42.20;;;;;;5035246;28;20268;-74
2023/03/18 11:11:22;;;;;;;6.72;6.18;;;30.00;41.80;;;;;;5032490;28;20195;-75
2023/03/18 11:13:51;;;;;;;7.13;6.53;;;30.20;41.20;;;;;;5022498;28;20741;-74
2023/03/18 11:16:29;;;;;;;6.82;6.22;;;30.10;41.00;;;;;;5039257;28;20202;-75
2023/03/18 11:18:55;;;;;;;8.80;6.45;;;30.60;41.20;;;;;;5034799;28;20253;-75
2023/03/18 11:21:22;;;;;;;7.10;6.40;;;32.00;39.80;;;;;;5033654;28;20682;-75
2023/03/18 11:24:06;;;;;;;7.57;6.50;;;33.00;38.40;;;;;;5031218;28;20179;-75
2023/03/18 11:26:46;;;;;;;8.77;6.75;;;33.20;37.90;;;;;;5032788;28;20721;-75
2023/03/18 11:29:17;;;;;;;7.78;6.97;;;33.20;37.30;;;;;;5031665;28;20646;-75
2023/03/18 11:31:53;;;;;;;8.10;6.95;;;33.80;36.60;;;;;;5034797;28;20206;-75
2023/03/18 11:34:20;;;;;;;8.65;7.10;;;33.30;36.90;;;;;;5032432;28;20204;-74
2023/03/18 11:37:03;;;;;;;8.82;7.70;;;32.60;36.90;;;;;;5038106;28;20168;-75
2023/03/18 11:39:31;;;;;;;11.05;10.05;;;32.20;38.40;;;;;;5035871;28;20180;-75
2023/03/18 11:41:59;;;;;;;9.35;8.55;;;33.10;37.50;;;;;;5036541;28;20192;-75
2023/03/18 11:44:30;;;;;;;7.63;7.03;;;34.00;36.50;;;;;;5027465;28;20187;-75
2023/03/18 11:47:04;;;;;;;6.97;6.40;;;34.50;35.90;;;;;;5025161;28;20180;-73
2023/03/18 11:49:30;;;;;;;7.25;6.47;;;35.00;34.60;;;;;;5030582;28;20176;-73
2023/03/18 11:52:14;;;;;;;7.38;6.68;;;34.80;35.30;;;;;;5029818;28;20204;-73
2023/03/18 11:55:07;;;;;;;7.03;6.45;;;33.90;35.60;;;;;;5030991;28;20203;-73
2023/03/18 11:57:42;;;;;;;6.88;6.28;;;33.10;36.90;;;;;;5033891;28;20172;-72
2023/03/18 12:00:35;;;;;;;7.45;6.65;;;33.00;37.30;;;;;;5026765;28;20245;-73
2023/03/18 12:03:46;;;;;;;8.75;7.82;;;33.50;37.40;;;;;;5029437;28;20189;-73
2023/03/18 12:06:25;;;;;;;8.52;7.30;;;33.90;36.50;;;;;;5013573;28;20180;-73
2023/03/18 12:09:16;;;;;;;7.22;6.63;;;34.70;35.90;;;;;;5036297;28;20187;-73
2023/03/18 12:11:52;;;;;;;8.57;7.07;;;35.10;35.40;;;;;;5039124;28;20214;-73
2023/03/18 12:15:05;;;;;;;7.28;6.68;;;35.20;35.60;;;;;;5029134;28;20675;-73
2023/03/18 12:17:42;;;;;;;8.38;7.20;;;35.80;35.10;;;;;;5045172;28;20195;-74
2023/03/18 12:20:45;;;;;;;8.82;7.97;;;36.10;34.40;;;;;;5030706;28;20238;-73
2023/03/18 12:23:29;;;;;;;7.90;7.15;;;35.70;35.00;;;;;;5031169;28;20301;-73
2023/03/18 12:26:22;;;;;;;8.70;6.90;;;36.50;34.60;;;;;;5023858;28;20206;-74
2023/03/18 12:29:16;;;;;;;8.05;7.43;;;36.20;34.50;;;;;;5028777;28;20212;-74
2023/03/18 12:32:05;;;;;;;8.10;7.30;;;36.30;34.50;;;;;;5024734;28;20536;-74
2023/03/18 12:34:49;;;;;;;7.78;7.07;;;36.40;33.70;;;;;;5026572;28;20199;-74
2023/03/18 12:37:44;;;;;;;8.65;7.03;;;35.70;34.40;;;;;;5032366;28;20190;-73
2023/03/18 12:40:24;;;;;;;8.52;7.72;;;35.60;34.30;;;;;;5040093;28;20187;-73
2023/03/18 12:42:59;;;;;;;8.70;7.90;;;35.70;34.90;;;;;;5041293;28;20254;-74
2023/03/18 12:45:29;;;;;;;8.25;7.40;;;35.70;34.20;;;;;;5033991;28;20183;-74
2023/03/18 12:48:12;;;;;;;8.82;7.93;;;35.50;34.60;;;;;;5034246;28;20263;-74
2023/03/18 12:50:48;;;;;;;11.23;8.07;;;34.50;35.20;;;;;;5032770;28;20211;-73
2023/03/18 12:53:34;;;;;;;10.43;7.88;;;34.30;35.30;;;;;;5032115;28;20196;-73
2023/03/18 12:56:10;;;;;;;8.25;7.55;;;33.80;35.40;;;;;;5029696;28;20620;-73
2023/03/18 12:58:47;;;;;;;9.93;7.25;;;33.20;37.10;;;;;;5032196;28;20209;-73
2023/03/18 13:01:46;;;;;;;9.10;7.80;;;33.50;36.60;;;;;;5028811;28;20203;-73
2023/03/18 13:04:18;;;;;;;8.13;7.38;;;33.30;36.20;;;;;;5012618;28;20181;-73
2023/03/18 13:06:57;;;;;;;8.45;7.45;;;32.90;36.40;;;;;;5031055;28;20468;-73
2023/03/18 13:09:38;;;;;;;8.18;7.38;;;32.40;38.40;;;;;;5026964;28;20250;-73